createdAt,value
2022-11-30T00:00:22.580Z,91.60
2022-11-30T00:03:17.100Z,84.30
2022-11-30T00:05:45.213Z,90.30
2022-11-30T00:08:13.294Z,95.50
2022-11-30T00:10:46.501Z,90.50
2022-11-30T00:13:14.603Z,88.50
2022-11-30T00:15:42.633Z,91.40
2022-11-30T00:18:19.863Z,78.20
2022-11-30T00:20:52.090Z,88.60
2022-11-30T00:23:23.449Z,83.30
2022-11-30T00:25:51.404Z,83.30
2022-11-30T00:28:30.764Z,77.20
2022-11-30T00:31:14.364Z,87.40
2022-11-30T00:33:49.823Z,85.00
2022-11-30T00:36:28.493Z,75.50
2022-11-30T00:39:10.609Z,81.90
2022-11-30T00:41:44.061Z,82.20
2022-11-30T00:44:21.158Z,82.50
2022-11-30T00:46:51.979Z,81.40
2022-11-30T00:49:25.558Z,85.00
2022-11-30T00:51:54.166Z,84.80
2022-11-30T00:54:35.998Z,84.90
2022-11-30T00:57:07.742Z,84.10
2022-11-30T00:59:36.563Z,85.60
2022-11-30T01:02:08.724Z,87.40
2022-11-30T01:04:37.367Z,88.10
2022-11-30T01:07:08.008Z,94.90
2022-11-30T01:09:38.117Z,77.80
2022-11-30T01:12:07.896Z,84.60
2022-11-30T01:14:46.017Z,84.30
2022-11-30T01:17:20.227Z,92.20
2022-11-30T01:19:53.477Z,79.70
2022-11-30T01:22:21.596Z,88.10
2022-11-30T01:24:49.619Z,86.80
2022-11-30T01:27:21.486Z,84.60
2022-11-30T01:29:49.493Z,85.90
2022-11-30T01:32:19.827Z,87.90
2022-11-30T01:34:50.584Z,88.40
2022-11-30T01:37:23.609Z,92.70
2022-11-30T01:39:51.609Z,90.50
2022-11-30T01:42:27.549Z,92.20
2022-11-30T01:45:05.267Z,99.60
2022-11-30T01:48:15.404Z,87.50
2022-11-30T01:50:44.823Z,96.90
2022-11-30T01:53:12.850Z,91.00
2022-11-30T01:55:43.337Z,95.10
2022-11-30T01:58:24.619Z,99.00
2022-11-30T02:00:56.201Z,98.60
2022-11-30T02:03:31.881Z,98.50
2022-11-30T02:06:00.913Z,97.50
2022-11-30T02:08:30.288Z,102.90
2022-11-30T02:11:03.761Z,102.10
2022-11-30T02:13:43.874Z,100.60
2022-11-30T02:16:58.566Z,109.30
2022-11-30T02:19:45.767Z,105.20
2022-11-30T02:22:58.280Z,107.70
2022-11-30T02:26:05.460Z,105.60
2022-11-30T02:29:08.294Z,110.30
2022-11-30T02:31:56.127Z,106.30
2022-11-30T02:34:34.699Z,103.90
2022-11-30T02:37:03.975Z,118.00
2022-11-30T02:39:38.625Z,104.00
2022-11-30T02:42:12.839Z,109.70
2022-11-30T02:44:44.800Z,103.40
2022-11-30T02:47:35.372Z,105.60
2022-11-30T02:50:11.619Z,103.80
2022-11-30T02:52:39.522Z,107.50
2022-11-30T02:55:11.358Z,115.40
2022-11-30T02:57:39.171Z,109.50
2022-11-30T03:00:13.469Z,102.50
2022-11-30T03:02:41.792Z,101.60
2022-11-30T03:05:10.398Z,109.10
2022-11-30T03:07:38.398Z,107.00
2022-11-30T03:10:07.595Z,102.70
2022-11-30T03:12:35.831Z,103.80
2022-11-30T03:15:05.406Z,100.80
2022-11-30T03:17:33.393Z,108.40
2022-11-30T03:20:01.330Z,102.60
2022-11-30T03:22:29.447Z,109.50
2022-11-30T03:24:57.391Z,109.20
2022-11-30T03:27:25.273Z,107.50
2022-11-30T03:29:53.178Z,101.20
2022-11-30T03:32:21.193Z,96.90
2022-11-30T03:34:49.355Z,101.10
2022-11-30T03:37:17.378Z,97.90
2022-11-30T03:39:45.191Z,102.60
2022-11-30T03:42:13.356Z,101.50
2022-11-30T03:44:41.248Z,105.20
2022-11-30T03:47:09.160Z,102.20
2022-11-30T03:49:37.136Z,98.60
2022-11-30T03:52:05.361Z,107.70
2022-11-30T03:54:33.332Z,98.70
2022-11-30T03:57:01.548Z,96.10
2022-11-30T03:59:29.497Z,95.60
2022-11-30T04:01:57.460Z,92.30
2022-11-30T04:04:25.513Z,102.10
2022-11-30T04:06:53.353Z,106.00
2022-11-30T04:09:21.329Z,93.70
2022-11-30T04:11:49.207Z,95.30
2022-11-30T04:14:17.018Z,93.20
2022-11-30T04:16:44.821Z,100.60
2022-11-30T04:19:12.763Z,100.50
2022-11-30T04:21:40.558Z,101.10
2022-11-30T04:24:09.143Z,102.30
2022-11-30T04:26:37.045Z,97.60
2022-11-30T04:29:05.341Z,105.00
2022-11-30T04:31:33.191Z,111.10
2022-11-30T04:34:01.033Z,99.60
2022-11-30T04:36:28.923Z,104.30
2022-11-30T04:38:57.258Z,100.10
2022-11-30T04:41:25.138Z,98.90
2022-11-30T04:43:53.020Z,95.70
2022-11-30T04:46:21.209Z,89.90
2022-11-30T04:48:49.169Z,92.90
2022-11-30T04:51:17.014Z,96.10
2022-11-30T04:53:44.822Z,94.10
2022-11-30T04:56:12.829Z,100.60
2022-11-30T04:58:40.709Z,103.90
2022-11-30T05:01:09.052Z,98.90
2022-11-30T05:03:36.923Z,104.00
2022-11-30T05:06:05.089Z,95.10
2022-11-30T05:08:32.852Z,103.90
2022-11-30T05:11:00.883Z,105.30
2022-11-30T05:13:28.831Z,97.40
2022-11-30T05:15:59.020Z,100.90
2022-11-30T05:18:27.283Z,94.60
2022-11-30T05:20:55.304Z,96.30
2022-11-30T05:23:23.426Z,91.00
2022-11-30T05:25:51.309Z,95.40
2022-11-30T05:28:19.166Z,94.50
2022-11-30T05:30:47.284Z,98.90
2022-11-30T05:33:15.321Z,99.80
2022-11-30T05:35:43.698Z,100.60
2022-11-30T05:38:11.618Z,97.10
2022-11-30T05:40:39.493Z,95.50
2022-11-30T05:43:07.402Z,105.70
2022-11-30T05:45:35.206Z,94.60
2022-11-30T05:48:03.149Z,94.70
2022-11-30T05:50:31.376Z,93.60
2022-11-30T05:53:00.953Z,104.50
2022-11-30T05:55:29.611Z,103.60
2022-11-30T05:57:57.464Z,102.00
2022-11-30T06:00:25.723Z,100.00
2022-11-30T06:02:57.940Z,113.70
2022-11-30T06:05:27.324Z,95.90
2022-11-30T06:07:55.532Z,98.60
2022-11-30T06:10:27.887Z,99.40
2022-11-30T06:12:55.882Z,96.70
2022-11-30T06:15:23.686Z,91.50
2022-11-30T06:17:51.538Z,103.20
2022-11-30T06:20:19.405Z,99.90
2022-11-30T06:22:47.745Z,102.60
2022-11-30T06:25:15.901Z,98.00
2022-11-30T06:27:43.790Z,103.50
2022-11-30T06:30:12.685Z,105.60
2022-11-30T06:32:40.758Z,100.00
2022-11-30T06:35:09.066Z,100.00
2022-11-30T06:37:36.839Z,95.90
2022-11-30T06:40:07.387Z,91.40
2022-11-30T06:42:36.685Z,98.90
2022-11-30T06:45:07.235Z,99.20
2022-11-30T06:47:35.462Z,100.90
2022-11-30T06:50:04.372Z,96.40
2022-11-30T06:52:32.329Z,97.80
2022-11-30T06:55:00.054Z,98.20
2022-11-30T06:57:28.881Z,96.00
2022-11-30T06:59:57.374Z,99.40
2022-11-30T07:02:26.678Z,101.60
2022-11-30T07:04:54.510Z,102.00
2022-11-30T07:07:22.483Z,98.10
2022-11-30T07:09:51.154Z,102.60
2022-11-30T07:12:19.329Z,111.70
2022-11-30T07:14:47.658Z,102.30
2022-11-30T07:17:15.713Z,100.10
2022-11-30T07:19:43.658Z,101.00
2022-11-30T07:22:14.659Z,109.00
2022-11-30T07:25:01.659Z,102.50
2022-11-30T07:27:32.124Z,97.20
2022-11-30T07:30:08.885Z,103.10
2022-11-30T07:32:36.688Z,108.20
2022-11-30T07:35:07.134Z,101.00
2022-11-30T07:37:35.204Z,97.20
2022-11-30T07:40:04.893Z,107.70
2022-11-30T07:42:35.479Z,100.50
2022-11-30T07:45:07.031Z,101.80
2022-11-30T07:47:38.649Z,98.20
2022-11-30T07:50:07.471Z,98.40
2022-11-30T07:52:35.439Z,104.50
2022-11-30T07:55:06.859Z,100.10
2022-11-30T07:57:35.164Z,110.10
2022-11-30T08:00:05.513Z,108.70
2022-11-30T08:02:33.593Z,106.90
2022-11-30T08:05:01.797Z,107.10
2022-11-30T08:07:29.828Z,116.30
2022-11-30T08:09:58.058Z,108.30
2022-11-30T08:12:28.465Z,94.40
2022-11-30T08:15:19.469Z,97.30
2022-11-30T08:17:52.080Z,97.40
2022-11-30T08:20:22.725Z,96.90
2022-11-30T08:22:54.586Z,95.20
2022-11-30T08:25:22.630Z,69.60
2022-11-30T08:27:52.690Z,95.50
2022-11-30T08:30:20.582Z,121.70
2022-11-30T08:32:48.606Z,106.00
2022-11-30T08:35:17.293Z,101.30
2022-11-30T08:37:48.471Z,107.70
2022-11-30T08:40:16.504Z,98.50
2022-11-30T08:42:44.501Z,100.80
2022-11-30T08:45:12.629Z,91.20
2022-11-30T08:47:40.858Z,100.90
2022-11-30T08:50:12.216Z,99.60
2022-11-30T08:52:41.351Z,98.30
2022-11-30T08:55:12.221Z,93.60
2022-11-30T08:57:40.589Z,102.80
2022-11-30T09:00:17.114Z,103.50
2022-11-30T09:02:45.326Z,108.00
2022-11-30T09:05:16.963Z,102.20
2022-11-30T09:07:47.730Z,118.80
2022-11-30T09:10:22.012Z,104.60
2022-11-30T09:12:50.832Z,93.90
2022-11-30T09:15:21.351Z,107.80
2022-11-30T09:18:01.784Z,98.60
2022-11-30T09:20:36.775Z,98.50
2022-11-30T09:23:08.600Z,97.30
2022-11-30T09:25:36.761Z,94.70
2022-11-30T09:28:09.368Z,92.30
2022-11-30T09:30:40.349Z,84.90
2022-11-30T09:33:13.582Z,100.30
2022-11-30T09:35:44.311Z,95.30
2022-11-30T09:38:12.552Z,96.30
2022-11-30T09:40:41.714Z,90.70
2022-11-30T09:43:28.864Z,103.60
2022-11-30T09:46:01.143Z,95.80
2022-11-30T09:48:54.879Z,98.00
2022-11-30T09:51:35.147Z,102.90
2022-11-30T09:54:12.888Z,101.40
2022-11-30T09:56:44.904Z,96.20
2022-11-30T09:59:30.120Z,94.90
2022-11-30T10:02:02.335Z,101.20
2022-11-30T10:04:38.791Z,98.00
2022-11-30T10:07:34.627Z,92.30
2022-11-30T10:13:34.799Z,99.50
2022-11-30T10:16:27.343Z,94.20
2022-11-30T10:18:59.595Z,94.40
2022-11-30T10:21:55.391Z,101.80
2022-11-30T10:24:48.641Z,95.50
2022-11-30T10:27:22.733Z,99.00
2022-11-30T10:29:51.195Z,94.80
2022-11-30T10:32:22.991Z,107.40
2022-11-30T10:35:13.292Z,108.90
2022-11-30T10:37:42.684Z,103.60
2022-11-30T10:40:32.573Z,106.80
2022-11-30T10:43:14.721Z,109.60
2022-11-30T10:45:48.876Z,95.70
2022-11-30T10:48:25.054Z,91.50
2022-11-30T10:50:53.760Z,102.00
2022-11-30T10:53:24.788Z,112.60
2022-11-30T10:56:10.572Z,101.80
2022-11-30T10:59:05.452Z,98.60
2022-11-30T11:01:39.610Z,105.00
2022-11-30T11:04:37.147Z,109.70
2022-11-30T11:07:12.820Z,115.40
2022-11-30T11:09:47.206Z,107.80
2022-11-30T11:12:26.033Z,103.70
2022-11-30T11:15:29.993Z,103.30
2022-11-30T11:18:19.287Z,102.70
2022-11-30T11:20:47.348Z,96.70
2022-11-30T11:23:37.599Z,93.20
2022-11-30T11:26:17.037Z,106.40
2022-11-30T11:28:51.369Z,116.50
2022-11-30T11:31:44.538Z,115.30
2022-11-30T11:34:37.566Z,111.30
2022-11-30T11:40:19.518Z,103.90
2022-11-30T11:42:58.293Z,105.70
2022-11-30T11:45:29.854Z,106.00
2022-11-30T11:48:01.629Z,99.90
2022-11-30T11:53:39.393Z,106.50
2022-11-30T11:56:19.742Z,108.80
2022-11-30T11:59:14.940Z,106.10
2022-11-30T12:02:35.790Z,114.60
2022-11-30T12:05:10.588Z,119.20
2022-11-30T12:08:06.804Z,117.80
2022-11-30T12:11:02.094Z,106.40
2022-11-30T12:13:34.845Z,132.90
2022-11-30T12:19:19.305Z,127.30
2022-11-30T12:25:39.899Z,128.70
2022-11-30T12:28:29.053Z,113.30
2022-11-30T12:31:18.002Z,103.00
2022-11-30T12:34:26.035Z,116.20
2022-11-30T12:37:10.757Z,103.80
2022-11-30T12:39:53.015Z,119.40
2022-11-30T12:43:21.167Z,118.00
2022-11-30T12:45:55.444Z,115.00
2022-11-30T12:48:42.802Z,121.40
2022-11-30T12:51:30.098Z,118.10
2022-11-30T12:54:40.396Z,109.10
2022-11-30T12:57:20.419Z,96.60
2022-11-30T13:00:22.947Z,101.60
2022-11-30T13:03:32.519Z,94.50
2022-11-30T13:06:07.290Z,95.70
2022-11-30T13:08:58.414Z,107.40
2022-11-30T13:11:39.778Z,104.30
2022-11-30T13:14:23.550Z,106.50
2022-11-30T13:17:01.010Z,111.80
2022-11-30T13:19:51.337Z,117.50
2022-11-30T13:22:44.040Z,113.20
2022-11-30T13:26:09.976Z,105.50
2022-11-30T13:28:43.156Z,107.20
2022-11-30T13:31:26.729Z,112.80
2022-11-30T13:33:54.648Z,100.20
2022-11-30T13:36:35.984Z,107.80
2022-11-30T13:39:29.720Z,106.30
2022-11-30T13:42:01.157Z,101.20
2022-11-30T13:44:38.720Z,110.90
2022-11-30T13:47:20.139Z,113.30
2022-11-30T13:50:08.142Z,99.80
2022-11-30T13:52:58.371Z,99.00
2022-11-30T13:55:36.241Z,100.90
2022-11-30T13:58:07.863Z,101.40
2022-11-30T14:00:35.811Z,95.50
2022-11-30T14:06:49.050Z,96.40
2022-11-30T14:09:42.879Z,98.20
2022-11-30T14:12:37.665Z,100.90
2022-11-30T14:15:31.936Z,105.80
2022-11-30T14:18:03.418Z,119.40
2022-11-30T14:20:46.797Z,113.70
2022-11-30T14:23:24.815Z,88.80
2022-11-30T14:25:56.757Z,108.70
2022-11-30T14:28:47.361Z,106.10
2022-11-30T14:31:21.571Z,93.90
2022-11-30T14:33:56.173Z,98.00
2022-11-30T14:36:34.607Z,110.80
2022-11-30T14:39:03.567Z,103.20
2022-11-30T14:41:31.814Z,111.00
2022-11-30T14:44:12.758Z,108.40
2022-11-30T14:46:41.507Z,117.00
2022-11-30T14:49:19.369Z,118.10
2022-11-30T14:51:59.527Z,109.60
2022-11-30T14:54:54.143Z,116.70
2022-11-30T14:57:39.259Z,117.70
2022-11-30T15:00:15.995Z,115.70
2022-11-30T15:02:44.612Z,106.80
2022-11-30T15:05:21.757Z,115.60
2022-11-30T15:07:50.360Z,99.20
2022-11-30T15:10:31.377Z,103.90
2022-11-30T15:13:00.985Z,114.90
2022-11-30T15:15:35.116Z,130.70
2022-11-30T15:18:13.077Z,110.90
2022-11-30T15:20:57.870Z,96.30
2022-11-30T15:23:26.348Z,96.30
2022-11-30T15:26:02.639Z,112.30
2022-11-30T15:28:41.935Z,105.70
2022-11-30T15:31:15.042Z,92.10
2022-11-30T15:33:50.586Z,98.30
2022-11-30T15:36:32.588Z,118.60
2022-11-30T15:41:36.135Z,102.20
2022-11-30T15:44:04.184Z,109.10
2022-11-30T15:46:46.200Z,105.90
2022-11-30T15:49:28.556Z,108.30
2022-11-30T15:52:17.025Z,120.60
2022-11-30T15:55:05.060Z,128.90
2022-11-30T15:58:02.783Z,134.20
2022-11-30T16:00:30.898Z,112.80
2022-11-30T16:03:13.478Z,130.70
2022-11-30T16:05:55.457Z,118.70
2022-11-30T16:08:23.544Z,129.70
2022-11-30T16:10:51.604Z,118.30
2022-11-30T16:13:22.615Z,127.50
2022-11-30T16:15:51.969Z,125.10
2022-11-30T16:18:26.292Z,116.10
2022-11-30T16:20:59.413Z,126.50
2022-11-30T16:23:28.505Z,125.30
2022-11-30T16:26:00.198Z,137.30
2022-11-30T16:28:28.181Z,109.60
2022-11-30T16:31:00.101Z,120.70
2022-11-30T16:33:28.273Z,115.80
2022-11-30T16:35:57.760Z,110.40
2022-11-30T16:38:26.127Z,96.10
2022-11-30T16:40:55.860Z,100.60
2022-11-30T16:43:25.756Z,109.10
2022-11-30T16:45:53.663Z,115.40
2022-11-30T16:48:21.504Z,106.80
2022-11-30T16:50:49.344Z,119.30
2022-11-30T16:53:17.200Z,94.90
2022-11-30T16:55:44.980Z,94.70
2022-11-30T16:58:12.784Z,98.40
2022-11-30T17:00:40.948Z,111.60
2022-11-30T17:03:23.638Z,105.10
2022-11-30T17:05:51.965Z,98.00
2022-11-30T17:08:19.818Z,102.30
2022-11-30T17:10:54.119Z,106.00
2022-11-30T17:13:21.935Z,128.00
2022-11-30T17:15:50.490Z,132.10
2022-11-30T17:18:18.433Z,129.00
2022-11-30T17:20:46.473Z,168.30
2022-11-30T17:23:14.301Z,167.90
2022-11-30T17:25:42.792Z,123.40
2022-11-30T17:28:10.603Z,132.10
2022-11-30T17:30:38.469Z,116.60
2022-11-30T17:33:06.365Z,124.90
2022-11-30T17:35:34.216Z,139.30
2022-11-30T17:38:02.039Z,133.10
2022-11-30T17:40:30.377Z,119.90
2022-11-30T17:43:00.673Z,114.90
2022-11-30T17:45:28.723Z,109.50
2022-11-30T17:47:56.617Z,132.40
2022-11-30T17:50:24.993Z,139.70
2022-11-30T17:52:53.073Z,110.00
2022-11-30T17:55:21.053Z,139.70
2022-11-30T17:57:48.893Z,113.60
2022-11-30T18:00:18.079Z,110.10
2022-11-30T18:02:45.913Z,106.20
2022-11-30T18:05:13.814Z,107.50
2022-11-30T18:07:43.150Z,120.50
2022-11-30T18:10:11.666Z,103.20
2022-11-30T18:12:39.860Z,109.30
2022-11-30T18:15:08.565Z,116.90
2022-11-30T18:17:36.800Z,120.30
2022-11-30T18:20:05.669Z,156.50
2022-11-30T18:22:33.588Z,124.50
2022-11-30T18:25:01.485Z,131.40
2022-11-30T18:27:29.525Z,129.10
2022-11-30T18:29:57.369Z,127.50
2022-11-30T18:32:25.257Z,115.20
2022-11-30T18:34:53.045Z,129.30
2022-11-30T18:37:20.990Z,123.10
2022-11-30T18:39:48.813Z,118.60
2022-11-30T18:42:18.189Z,106.90
2022-11-30T18:44:46.364Z,95.90
2022-11-30T18:47:14.258Z,112.00
2022-11-30T18:49:42.104Z,111.20
2022-11-30T18:52:09.967Z,114.50
2022-11-30T18:54:37.774Z,116.60
2022-11-30T18:57:05.720Z,118.20
2022-11-30T18:59:33.500Z,103.80
2022-11-30T19:02:01.327Z,101.50
2022-11-30T19:04:29.270Z,104.50
2022-11-30T19:06:57.444Z,105.50
2022-11-30T19:09:25.554Z,105.10
2022-11-30T19:11:53.520Z,93.90
2022-11-30T19:14:21.529Z,102.00
2022-11-30T19:16:49.502Z,102.60
2022-11-30T19:19:17.667Z,99.10
2022-11-30T19:21:47.890Z,100.40
2022-11-30T19:24:16.807Z,109.70
2022-11-30T19:26:44.954Z,108.60
2022-11-30T19:29:13.375Z,115.80
2022-11-30T19:31:41.322Z,103.40
2022-11-30T19:34:12.266Z,93.00
2022-11-30T19:36:41.675Z,94.60
2022-11-30T19:39:11.097Z,92.80
2022-11-30T19:41:42.633Z,98.50
2022-11-30T19:44:14.099Z,85.30
2022-11-30T19:46:42.639Z,95.20
2022-11-30T19:49:11.353Z,98.70
2022-11-30T19:51:39.592Z,95.60
2022-11-30T19:54:08.215Z,101.60
2022-11-30T19:56:39.014Z,102.10
2022-11-30T19:59:13.724Z,110.30
2022-11-30T20:01:45.725Z,108.70
2022-11-30T20:04:14.602Z,112.30
2022-11-30T20:06:43.518Z,97.20
2022-11-30T20:09:14.857Z,98.90
2022-11-30T20:11:45.160Z,93.00
2022-11-30T20:14:17.250Z,84.30
2022-11-30T20:16:48.235Z,90.20
2022-11-30T20:19:18.119Z,87.90
2022-11-30T20:21:48.414Z,87.70
2022-11-30T20:24:22.459Z,102.60
2022-11-30T20:26:50.967Z,88.50
2022-11-30T20:29:19.578Z,93.80
2022-11-30T20:31:49.760Z,97.20
2022-11-30T20:34:18.139Z,92.70
2022-11-30T20:36:46.777Z,97.30
2022-11-30T20:39:17.758Z,95.00
2022-11-30T20:41:49.136Z,107.80
2022-11-30T20:44:17.399Z,109.40
2022-11-30T20:46:45.706Z,95.30
2022-11-30T20:49:17.983Z,95.40
2022-11-30T20:51:47.141Z,83.40
2022-11-30T20:54:16.487Z,73.40
2022-11-30T20:56:48.847Z,79.40
2022-11-30T20:59:23.725Z,67.50
2022-11-30T21:01:56.480Z,68.00
2022-11-30T21:04:27.136Z,69.60
2022-11-30T21:06:57.910Z,75.30
2022-11-30T21:09:25.781Z,72.10
2022-11-30T21:11:54.287Z,77.30
2022-11-30T21:14:23.510Z,71.40
2022-11-30T21:16:52.110Z,73.90
2022-11-30T21:19:20.565Z,66.30
2022-11-30T21:21:49.596Z,85.50
2022-11-30T21:24:18.757Z,72.60
2022-11-30T21:26:47.366Z,89.50
2022-11-30T21:29:19.602Z,85.70
2022-11-30T21:31:48.684Z,77.20
2022-11-30T21:34:17.048Z,92.90
2022-11-30T21:36:45.811Z,86.60
2022-11-30T21:39:17.266Z,74.30
2022-11-30T21:41:47.296Z,77.50
2022-11-30T21:44:17.291Z,70.90
2022-11-30T21:46:47.189Z,73.70
2022-11-30T21:49:16.079Z,67.30
2022-11-30T21:51:44.423Z,71.30
2022-11-30T21:54:16.439Z,71.20
2022-11-30T21:56:45.954Z,65.50
2022-11-30T21:59:14.846Z,64.30
2022-11-30T22:01:46.474Z,70.30
2022-11-30T22:04:15.933Z,65.00
2022-11-30T22:06:45.206Z,74.20
2022-11-30T22:09:16.365Z,85.80
2022-11-30T22:11:46.169Z,70.90
2022-11-30T22:14:17.785Z,61.50
2022-11-30T22:16:47.363Z,66.00
2022-11-30T22:19:17.547Z,65.70
2022-11-30T22:21:49.920Z,71.20
2022-11-30T22:24:23.583Z,70.90
2022-11-30T22:26:52.044Z,67.50
2022-11-30T22:29:23.437Z,60.90
2022-11-30T22:31:59.752Z,61.40
2022-11-30T22:34:29.567Z,65.70
2022-11-30T22:36:58.060Z,64.80
2022-11-30T22:39:26.626Z,61.70
2022-11-30T22:42:01.999Z,57.90
2022-11-30T22:44:32.990Z,63.30
2022-11-30T22:47:01.348Z,58.70
2022-11-30T22:49:29.761Z,56.70
2022-11-30T22:51:58.275Z,61.70
2022-11-30T22:54:29.610Z,66.30
2022-11-30T22:57:01.252Z,65.10
2022-11-30T22:59:30.094Z,63.10
2022-11-30T23:01:59.168Z,58.10
2022-11-30T23:04:28.065Z,57.90
2022-11-30T23:06:58.128Z,59.80
2022-11-30T23:09:26.581Z,57.50
2022-11-30T23:11:54.474Z,59.60
2022-11-30T23:14:23.754Z,58.00
2022-11-30T23:16:53.373Z,66.10
2022-11-30T23:19:21.389Z,59.90
2022-11-30T23:22:29.475Z,64.30
2022-11-30T23:25:12.250Z,59.10
2022-11-30T23:27:43.965Z,61.50
2022-11-30T23:30:14.502Z,61.90
2022-11-30T23:32:42.563Z,63.30
2022-11-30T23:36:03.192Z,63.10
2022-11-30T23:38:32.223Z,59.60
2022-11-30T23:41:11.336Z,57.80
2022-11-30T23:43:40.028Z,55.30
2022-11-30T23:46:10.475Z,58.90
2022-11-30T23:48:39.656Z,56.40
2022-11-30T23:51:07.648Z,59.30
2022-11-30T23:53:35.548Z,59.70
2022-11-30T23:56:11.570Z,58.00
2022-11-30T23:58:42.245Z,56.10
